sensor_id;sensor_type;location;lat;lon;timestamp;temperature;humidity
63039;DHT22;49125;48.812;9.206;2022-09-09T00:04:35;14.60;99.20
63039;DHT22;49125;48.812;9.206;2022-09-09T00:07:13;14.60;99.10
63039;DHT22;49125;48.812;9.206;2022-09-09T00:09:56;14.60;99.20
63039;DHT22;49125;48.812;9.206;2022-09-09T00:18:26;14.50;99.10
63039;DHT22;49125;48.812;9.206;2022-09-09T00:21:12;14.60;99.00
63039;DHT22;49125;48.812;9.206;2022-09-09T00:23:46;14.50;99.10
63039;DHT22;49125;48.812;9.206;2022-09-09T00:26:36;14.60;99.30
63039;DHT22;49125;48.812;9.206;2022-09-09T00:29:14;14.50;99.40
63039;DHT22;49125;48.812;9.206;2022-09-09T00:31:40;14.50;99.30
63039;DHT22;49125;48.812;9.206;2022-09-09T00:34:13;14.60;99.40
63039;DHT22;49125;48.812;9.206;2022-09-09T00:36:40;14.70;99.40
63039;DHT22;49125;48.812;9.206;2022-09-09T00:39:23;14.80;99.30
63039;DHT22;49125;48.812;9.206;2022-09-09T00:41:53;14.80;99.20
63039;DHT22;49125;48.812;9.206;2022-09-09T00:44:31;14.90;99.20
63039;DHT22;49125;48.812;9.206;2022-09-09T00:55:28;15.30;99.00
63039;DHT22;49125;48.812;9.206;2022-09-09T00:57:59;15.40;98.60
63039;DHT22;49125;48.812;9.206;2022-09-09T01:01:19;15.50;98.70
63039;DHT22;49125;48.812;9.206;2022-09-09T01:10:54;15.70;98.50
63039;DHT22;49125;48.812;9.206;2022-09-09T01:13:34;15.70;98.50
63039;DHT22;49125;48.812;9.206;2022-09-09T01:16:03;15.60;98.50
63039;DHT22;49125;48.812;9.206;2022-09-09T01:18:35;15.70;98.50
63039;DHT22;49125;48.812;9.206;2022-09-09T01:23:56;15.70;98.20
63039;DHT22;49125;48.812;9.206;2022-09-09T01:26:37;15.80;98.20
63039;DHT22;49125;48.812;9.206;2022-09-09T01:29:08;15.80;98.10
63039;DHT22;49125;48.812;9.206;2022-09-09T01:31:40;15.90;98.00
63039;DHT22;49125;48.812;9.206;2022-09-09T01:34:14;15.90;98.00
63039;DHT22;49125;48.812;9.206;2022-09-09T01:36:47;16.00;97.90
63039;DHT22;49125;48.812;9.206;2022-09-09T01:39:13;15.90;97.70
63039;DHT22;49125;48.812;9.206;2022-09-09T01:41:41;16.00;97.70
63039;DHT22;49125;48.812;9.206;2022-09-09T01:44:07;16.00;97.60
63039;DHT22;49125;48.812;9.206;2022-09-09T01:46:33;16.00;97.50
63039;DHT22;49125;48.812;9.206;2022-09-09T01:49:00;16.00;97.70
63039;DHT22;49125;48.812;9.206;2022-09-09T01:51:27;16.10;97.60
63039;DHT22;49125;48.812;9.206;2022-09-09T01:53:53;16.10;97.50
63039;DHT22;49125;48.812;9.206;2022-09-09T02:04:36;15.90;97.60
63039;DHT22;49125;48.812;9.206;2022-09-09T02:07:10;15.90;97.70
63039;DHT22;49125;48.812;9.206;2022-09-09T02:09:41;15.80;97.60
63039;DHT22;49125;48.812;9.206;2022-09-09T02:12:18;15.70;97.60
63039;DHT22;49125;48.812;9.206;2022-09-09T02:14:51;15.60;97.70
63039;DHT22;49125;48.812;9.206;2022-09-09T02:17:33;15.50;97.70
63039;DHT22;49125;48.812;9.206;2022-09-09T02:20:12;15.50;97.80
63039;DHT22;49125;48.812;9.206;2022-09-09T02:22:41;15.40;97.70
63039;DHT22;49125;48.812;9.206;2022-09-09T02:25:10;15.40;97.80
63039;DHT22;49125;48.812;9.206;2022-09-09T02:27:37;15.30;97.90
63039;DHT22;49125;48.812;9.206;2022-09-09T02:30:04;15.30;98.00
63039;DHT22;49125;48.812;9.206;2022-09-09T02:32:32;15.30;98.00
63039;DHT22;49125;48.812;9.206;2022-09-09T02:35:05;15.20;98.20
63039;DHT22;49125;48.812;9.206;2022-09-09T02:37:35;15.20;98.20
63039;DHT22;49125;48.812;9.206;2022-09-09T02:40:06;15.10;98.20
63039;DHT22;49125;48.812;9.206;2022-09-09T02:42:39;15.10;98.20
63039;DHT22;49125;48.812;9.206;2022-09-09T02:45:05;15.10;98.30
63039;DHT22;49125;48.812;9.206;2022-09-09T02:47:37;15.10;98.30
63039;DHT22;49125;48.812;9.206;2022-09-09T02:52:38;14.90;98.40
63039;DHT22;49125;48.812;9.206;2022-09-09T02:56:16;14.80;98.50
63039;DHT22;49125;48.812;9.206;2022-09-09T02:58:12;14.70;98.60
63039;DHT22;49125;48.812;9.206;2022-09-09T03:00:42;14.60;98.80
63039;DHT22;49125;48.812;9.206;2022-09-09T03:03:08;14.50;99.00
63039;DHT22;49125;48.812;9.206;2022-09-09T03:05:34;14.40;99.00
63039;DHT22;49125;48.812;9.206;2022-09-09T03:08:01;14.40;99.10
63039;DHT22;49125;48.812;9.206;2022-09-09T03:10:27;14.40;99.00
63039;DHT22;49125;48.812;9.206;2022-09-09T03:12:56;14.40;99.30
63039;DHT22;49125;48.812;9.206;2022-09-09T03:15:21;14.40;99.40
63039;DHT22;49125;48.812;9.206;2022-09-09T03:17:47;14.40;99.30
63039;DHT22;49125;48.812;9.206;2022-09-09T03:20:13;14.40;99.30
63039;DHT22;49125;48.812;9.206;2022-09-09T03:22:38;14.40;99.40
63039;DHT22;49125;48.812;9.206;2022-09-09T03:25:04;14.50;99.40
63039;DHT22;49125;48.812;9.206;2022-09-09T03:27:31;14.60;99.20
63039;DHT22;49125;48.812;9.206;2022-09-09T03:29:56;14.70;99.20
63039;DHT22;49125;48.812;9.206;2022-09-09T03:32:23;14.70;99.20
63039;DHT22;49125;48.812;9.206;2022-09-09T03:34:51;14.80;99.00
63039;DHT22;49125;48.812;9.206;2022-09-09T03:37:18;14.90;98.90
63039;DHT22;49125;48.812;9.206;2022-09-09T03:39:44;14.90;98.70
63039;DHT22;49125;48.812;9.206;2022-09-09T03:42:12;15.00;98.50
63039;DHT22;49125;48.812;9.206;2022-09-09T03:44:39;15.00;98.50
63039;DHT22;49125;48.812;9.206;2022-09-09T03:47:05;15.10;98.50
63039;DHT22;49125;48.812;9.206;2022-09-09T03:49:31;15.10;98.50
63039;DHT22;49125;48.812;9.206;2022-09-09T03:51:57;15.10;98.40
63039;DHT22;49125;48.812;9.206;2022-09-09T03:54:27;15.10;98.40
63039;DHT22;49125;48.812;9.206;2022-09-09T03:56:53;15.00;98.40
63039;DHT22;49125;48.812;9.206;2022-09-09T03:59:18;14.90;98.50
63039;DHT22;49125;48.812;9.206;2022-09-09T04:01:45;14.80;98.60
63039;DHT22;49125;48.812;9.206;2022-09-09T04:04:12;14.80;98.70
63039;DHT22;49125;48.812;9.206;2022-09-09T04:06:38;14.70;98.70
63039;DHT22;49125;48.812;9.206;2022-09-09T04:09:03;14.70;98.70
63039;DHT22;49125;48.812;9.206;2022-09-09T04:11:29;14.70;98.90
63039;DHT22;49125;48.812;9.206;2022-09-09T04:13:54;14.70;99.00
63039;DHT22;49125;48.812;9.206;2022-09-09T04:16:20;14.70;99.00
63039;DHT22;49125;48.812;9.206;2022-09-09T04:18:46;14.70;99.10
63039;DHT22;49125;48.812;9.206;2022-09-09T04:21:11;14.70;99.20
63039;DHT22;49125;48.812;9.206;2022-09-09T04:23:38;14.70;99.10
63039;DHT22;49125;48.812;9.206;2022-09-09T04:26:07;14.80;99.10
63039;DHT22;49125;48.812;9.206;2022-09-09T04:28:35;14.80;99.00
63039;DHT22;49125;48.812;9.206;2022-09-09T04:31:05;14.90;98.80
63039;DHT22;49125;48.812;9.206;2022-09-09T04:33:34;14.90;98.60
63039;DHT22;49125;48.812;9.206;2022-09-09T04:36:04;15.00;98.80
63039;DHT22;49125;48.812;9.206;2022-09-09T04:38:29;15.00;98.70
63039;DHT22;49125;48.812;9.206;2022-09-09T04:40:55;15.10;98.70
63039;DHT22;49125;48.812;9.206;2022-09-09T04:43:21;15.10;98.60
63039;DHT22;49125;48.812;9.206;2022-09-09T04:45:49;15.10;98.40
63039;DHT22;49125;48.812;9.206;2022-09-09T04:48:15;15.20;98.20
63039;DHT22;49125;48.812;9.206;2022-09-09T04:50:41;15.20;98.10
63039;DHT22;49125;48.812;9.206;2022-09-09T04:53:07;15.20;98.10
63039;DHT22;49125;48.812;9.206;2022-09-09T04:55:34;15.20;98.00
63039;DHT22;49125;48.812;9.206;2022-09-09T04:58:07;15.20;97.90
63039;DHT22;49125;48.812;9.206;2022-09-09T05:00:34;15.20;97.90
63039;DHT22;49125;48.812;9.206;2022-09-09T05:03:04;15.20;97.90
63039;DHT22;49125;48.812;9.206;2022-09-09T05:05:33;15.10;98.00
63039;DHT22;49125;48.812;9.206;2022-09-09T05:08:03;15.00;98.00
63039;DHT22;49125;48.812;9.206;2022-09-09T05:10:30;14.90;98.10
63039;DHT22;49125;48.812;9.206;2022-09-09T05:12:56;14.90;98.20
63039;DHT22;49125;48.812;9.206;2022-09-09T05:15:22;14.80;98.30
63039;DHT22;49125;48.812;9.206;2022-09-09T05:17:47;14.80;98.50
63039;DHT22;49125;48.812;9.206;2022-09-09T05:20:16;14.80;98.60
63039;DHT22;49125;48.812;9.206;2022-09-09T05:22:41;14.80;98.80
63039;DHT22;49125;48.812;9.206;2022-09-09T05:25:07;14.80;98.70
63039;DHT22;49125;48.812;9.206;2022-09-09T05:27:36;14.90;98.90
63039;DHT22;49125;48.812;9.206;2022-09-09T05:30:03;15.00;98.90
63039;DHT22;49125;48.812;9.206;2022-09-09T05:32:30;15.10;98.60
63039;DHT22;49125;48.812;9.206;2022-09-09T05:34:59;15.20;99.00
63039;DHT22;49125;48.812;9.206;2022-09-09T05:37:24;15.30;98.80
63039;DHT22;49125;48.812;9.206;2022-09-09T05:39:50;15.40;98.90
63039;DHT22;49125;48.812;9.206;2022-09-09T05:42:16;15.50;98.50
63039;DHT22;49125;48.812;9.206;2022-09-09T05:44:42;15.60;98.30
63039;DHT22;49125;48.812;9.206;2022-09-09T05:47:10;15.70;97.90
63039;DHT22;49125;48.812;9.206;2022-09-09T05:49:35;15.80;97.90
63039;DHT22;49125;48.812;9.206;2022-09-09T05:52:02;15.90;97.70
63039;DHT22;49125;48.812;9.206;2022-09-09T05:54:29;16.00;97.80
63039;DHT22;49125;48.812;9.206;2022-09-09T05:56:55;16.10;97.60
63039;DHT22;49125;48.812;9.206;2022-09-09T05:59:20;16.10;97.70
63039;DHT22;49125;48.812;9.206;2022-09-09T06:01:48;16.20;97.90
63039;DHT22;49125;48.812;9.206;2022-09-09T06:04:14;16.30;97.40
63039;DHT22;49125;48.812;9.206;2022-09-09T06:06:40;16.40;97.40
63039;DHT22;49125;48.812;9.206;2022-09-09T06:09:08;16.50;97.40
63039;DHT22;49125;48.812;9.206;2022-09-09T06:11:37;16.60;97.30
63039;DHT22;49125;48.812;9.206;2022-09-09T06:14:04;16.70;97.20
63039;DHT22;49125;48.812;9.206;2022-09-09T06:16:31;16.80;97.20
63039;DHT22;49125;48.812;9.206;2022-09-09T06:19:00;17.00;97.30
63039;DHT22;49125;48.812;9.206;2022-09-09T06:21:31;17.10;96.80
63039;DHT22;49125;48.812;9.206;2022-09-09T06:23:58;17.10;96.80
63039;DHT22;49125;48.812;9.206;2022-09-09T06:26:30;17.20;96.70
63039;DHT22;49125;48.812;9.206;2022-09-09T06:28:56;17.30;96.80
63039;DHT22;49125;48.812;9.206;2022-09-09T06:31:28;17.40;96.40
63039;DHT22;49125;48.812;9.206;2022-09-09T06:33:57;17.50;96.60
63039;DHT22;49125;48.812;9.206;2022-09-09T06:36:34;17.50;96.30
63039;DHT22;49125;48.812;9.206;2022-09-09T06:39:00;17.70;96.20
63039;DHT22;49125;48.812;9.206;2022-09-09T06:41:29;17.70;96.30
63039;DHT22;49125;48.812;9.206;2022-09-09T06:43:55;17.80;96.20
63039;DHT22;49125;48.812;9.206;2022-09-09T06:46:28;17.90;96.10
63039;DHT22;49125;48.812;9.206;2022-09-09T06:48:55;18.00;95.70
63039;DHT22;49125;48.812;9.206;2022-09-09T06:51:33;18.10;95.60
63039;DHT22;49125;48.812;9.206;2022-09-09T06:54:00;18.20;95.60
63039;DHT22;49125;48.812;9.206;2022-09-09T06:56:28;18.30;95.60
63039;DHT22;49125;48.812;9.206;2022-09-09T06:58:59;18.40;95.20
63039;DHT22;49125;48.812;9.206;2022-09-09T07:01:28;18.50;95.10
63039;DHT22;49125;48.812;9.206;2022-09-09T07:03:56;18.60;95.20
63039;DHT22;49125;48.812;9.206;2022-09-09T07:06:28;18.70;95.20
63039;DHT22;49125;48.812;9.206;2022-09-09T07:08:56;18.90;94.80
63039;DHT22;49125;48.812;9.206;2022-09-09T07:11:25;18.90;94.50
63039;DHT22;49125;48.812;9.206;2022-09-09T07:13:52;18.90;94.30
63039;DHT22;49125;48.812;9.206;2022-09-09T07:16:20;18.90;94.20
63039;DHT22;49125;48.812;9.206;2022-09-09T07:18:46;18.90;94.20
63039;DHT22;49125;48.812;9.206;2022-09-09T07:21:13;19.10;94.50
63039;DHT22;49125;48.812;9.206;2022-09-09T07:23:40;19.10;94.00
63039;DHT22;49125;48.812;9.206;2022-09-09T07:26:13;19.20;93.70
63039;DHT22;49125;48.812;9.206;2022-09-09T07:28:39;19.30;93.70
63039;DHT22;49125;48.812;9.206;2022-09-09T07:31:07;19.50;93.90
63039;DHT22;49125;48.812;9.206;2022-09-09T07:33:38;19.60;93.30
63039;DHT22;49125;48.812;9.206;2022-09-09T07:38:30;19.90;93.10
63039;DHT22;49125;48.812;9.206;2022-09-09T07:41:09;20.10;93.10
63039;DHT22;49125;48.812;9.206;2022-09-09T07:43:38;20.30;92.80
63039;DHT22;49125;48.812;9.206;2022-09-09T07:46:06;20.60;92.50
63039;DHT22;49125;48.812;9.206;2022-09-09T07:48:32;20.90;92.30
63039;DHT22;49125;48.812;9.206;2022-09-09T07:51:10;21.20;92.50
63039;DHT22;49125;48.812;9.206;2022-09-09T07:53:37;21.40;90.90
63039;DHT22;49125;48.812;9.206;2022-09-09T07:56:08;21.40;90.90
63039;DHT22;49125;48.812;9.206;2022-09-09T07:58:36;21.40;90.90
63039;DHT22;49125;48.812;9.206;2022-09-09T08:01:10;21.50;90.70
63039;DHT22;49125;48.812;9.206;2022-09-09T08:03:36;21.50;90.10
63039;DHT22;49125;48.812;9.206;2022-09-09T08:06:07;21.70;90.10
63039;DHT22;49125;48.812;9.206;2022-09-09T08:08:35;22.00;90.30
63039;DHT22;49125;48.812;9.206;2022-09-09T08:11:12;22.20;90.00
63039;DHT22;49125;48.812;9.206;2022-09-09T08:13:40;22.50;89.70
63039;DHT22;49125;48.812;9.206;2022-09-09T08:16:25;22.90;90.30
63039;DHT22;49125;48.812;9.206;2022-09-09T08:18:52;23.10;86.90
63039;DHT22;49125;48.812;9.206;2022-09-09T08:21:21;23.30;87.00
63039;DHT22;49125;48.812;9.206;2022-09-09T08:23:51;23.30;87.20
63039;DHT22;49125;48.812;9.206;2022-09-09T08:26:22;23.40;85.90
63039;DHT22;49125;48.812;9.206;2022-09-09T08:28:52;23.40;84.20
63039;DHT22;49125;48.812;9.206;2022-09-09T08:31:21;23.20;85.50
63039;DHT22;49125;48.812;9.206;2022-09-09T08:33:46;23.40;86.10
63039;DHT22;49125;48.812;9.206;2022-09-09T08:36:17;23.50;83.40
63039;DHT22;49125;48.812;9.206;2022-09-09T08:38:47;23.90;83.10
63039;DHT22;49125;48.812;9.206;2022-09-09T08:44:16;24.70;78.80
63039;DHT22;49125;48.812;9.206;2022-09-09T08:47:00;24.80;77.30
63039;DHT22;49125;48.812;9.206;2022-09-09T08:54:47;25.20;77.30
63039;DHT22;49125;48.812;9.206;2022-09-09T08:57:20;25.50;77.10
63039;DHT22;49125;48.812;9.206;2022-09-09T08:59:47;25.70;74.40
63039;DHT22;49125;48.812;9.206;2022-09-09T09:02:40;25.80;75.40
63039;DHT22;49125;48.812;9.206;2022-09-09T09:13:20;26.50;67.80
63039;DHT22;49125;48.812;9.206;2022-09-09T09:15:54;26.20;66.10
63039;DHT22;49125;48.812;9.206;2022-09-09T09:18:25;26.00;67.40
63039;DHT22;49125;48.812;9.206;2022-09-09T09:23:51;25.40;66.90
63039;DHT22;49125;48.812;9.206;2022-09-09T09:26:17;25.00;67.20
63039;DHT22;49125;48.812;9.206;2022-09-09T09:28:44;24.80;67.30
63039;DHT22;49125;48.812;9.206;2022-09-09T09:31:11;24.50;68.60
63039;DHT22;49125;48.812;9.206;2022-09-09T09:36:07;23.50;68.90
63039;DHT22;49125;48.812;9.206;2022-09-09T09:38:34;23.10;70.20
63039;DHT22;49125;48.812;9.206;2022-09-09T09:41:00;22.90;70.90
63039;DHT22;49125;48.812;9.206;2022-09-09T09:43:34;22.40;70.60
63039;DHT22;49125;48.812;9.206;2022-09-09T09:46:00;22.10;70.80
63039;DHT22;49125;48.812;9.206;2022-09-09T09:48:28;21.80;71.40
63039;DHT22;49125;48.812;9.206;2022-09-09T09:53:34;22.10;70.70
63039;DHT22;49125;48.812;9.206;2022-09-09T09:58:36;23.40;69.60
63039;DHT22;49125;48.812;9.206;2022-09-09T10:01:03;23.90;68.80
63039;DHT22;49125;48.812;9.206;2022-09-09T10:03:34;24.40;66.80
63039;DHT22;49125;48.812;9.206;2022-09-09T10:06:05;24.80;67.70
63039;DHT22;49125;48.812;9.206;2022-09-09T10:08:43;25.20;64.50
63039;DHT22;49125;48.812;9.206;2022-09-09T10:11:30;25.60;65.50
63039;DHT22;49125;48.812;9.206;2022-09-09T10:20:16;25.90;63.90
63039;DHT22;49125;48.812;9.206;2022-09-09T10:22:49;26.30;63.40
63039;DHT22;49125;48.812;9.206;2022-09-09T10:37:32;28.00;60.30
63039;DHT22;49125;48.812;9.206;2022-09-09T10:40:38;28.30;61.10
63039;DHT22;49125;48.812;9.206;2022-09-09T10:43:20;28.80;59.50
63039;DHT22;49125;48.812;9.206;2022-09-09T10:50:54;28.60;58.90
63039;DHT22;49125;48.812;9.206;2022-09-09T10:53:36;28.40;57.70
63039;DHT22;49125;48.812;9.206;2022-09-09T10:56:11;27.70;58.50
63039;DHT22;49125;48.812;9.206;2022-09-09T10:58:52;27.40;60.60
63039;DHT22;49125;48.812;9.206;2022-09-09T11:03:57;27.90;60.10
63039;DHT22;49125;48.812;9.206;2022-09-09T11:06:31;28.20;59.30
63039;DHT22;49125;48.812;9.206;2022-09-09T11:08:59;28.40;59.40
63039;DHT22;49125;48.812;9.206;2022-09-09T11:11:32;29.40;59.40
63039;DHT22;49125;48.812;9.206;2022-09-09T11:14:05;29.60;57.50
63039;DHT22;49125;48.812;9.206;2022-09-09T11:16:52;29.50;55.30
63039;DHT22;49125;48.812;9.206;2022-09-09T11:19:39;28.60;56.00
63039;DHT22;49125;48.812;9.206;2022-09-09T11:36:38;23.30;59.10
63039;DHT22;49125;48.812;9.206;2022-09-09T11:41:48;23.30;60.30
63039;DHT22;49125;48.812;9.206;2022-09-09T11:44:23;23.30;60.40
63039;DHT22;49125;48.812;9.206;2022-09-09T11:46:51;23.40;59.60
63039;DHT22;49125;48.812;9.206;2022-09-09T11:49:40;23.50;60.70
63039;DHT22;49125;48.812;9.206;2022-09-09T11:52:24;23.30;59.10
63039;DHT22;49125;48.812;9.206;2022-09-09T11:54:54;23.40;61.10
63039;DHT22;49125;48.812;9.206;2022-09-09T11:59:53;23.50;61.40
63039;DHT22;49125;48.812;9.206;2022-09-09T12:02:25;23.60;61.50
63039;DHT22;49125;48.812;9.206;2022-09-09T12:07:36;23.80;60.70
63039;DHT22;49125;48.812;9.206;2022-09-09T12:10:19;24.10;60.60
63039;DHT22;49125;48.812;9.206;2022-09-09T12:12:45;25.10;59.70
63039;DHT22;49125;48.812;9.206;2022-09-09T12:17:52;27.30;57.80
63039;DHT22;49125;48.812;9.206;2022-09-09T12:28:17;32.70;50.00
63039;DHT22;49125;48.812;9.206;2022-09-09T12:30:49;33.90;45.40
63039;DHT22;49125;48.812;9.206;2022-09-09T12:33:18;34.10;42.50
63039;DHT22;49125;48.812;9.206;2022-09-09T12:35:49;34.00;41.90
63039;DHT22;49125;48.812;9.206;2022-09-09T12:38:29;34.20;44.30
63039;DHT22;49125;48.812;9.206;2022-09-09T12:40:57;34.40;40.00
63039;DHT22;49125;48.812;9.206;2022-09-09T12:43:24;34.40;40.00
63039;DHT22;49125;48.812;9.206;2022-09-09T12:45:54;33.90;38.70
63039;DHT22;49125;48.812;9.206;2022-09-09T12:48:44;32.80;39.80
63039;DHT22;49125;48.812;9.206;2022-09-09T12:51:27;31.60;39.60
63039;DHT22;49125;48.812;9.206;2022-09-09T12:53:54;30.30;40.50
63039;DHT22;49125;48.812;9.206;2022-09-09T12:56:22;29.30;42.40
63039;DHT22;49125;48.812;9.206;2022-09-09T12:58:52;29.40;43.60
63039;DHT22;49125;48.812;9.206;2022-09-09T13:03:51;31.80;43.50
63039;DHT22;49125;48.812;9.206;2022-09-09T13:06:29;32.90;40.10
63039;DHT22;49125;48.812;9.206;2022-09-09T13:08:56;33.40;38.80
63039;DHT22;49125;48.812;9.206;2022-09-09T13:11:38;34.00;40.00
63039;DHT22;49125;48.812;9.206;2022-09-09T13:14:05;34.70;38.60
63039;DHT22;49125;48.812;9.206;2022-09-09T13:16:34;35.30;37.30
63039;DHT22;49125;48.812;9.206;2022-09-09T13:19:02;36.00;36.00
63039;DHT22;49125;48.812;9.206;2022-09-09T13:21:38;35.90;36.70
63039;DHT22;49125;48.812;9.206;2022-09-09T13:24:06;35.10;36.50
63039;DHT22;49125;48.812;9.206;2022-09-09T13:26:55;34.00;37.40
63039;DHT22;49125;48.812;9.206;2022-09-09T13:29:22;32.60;39.00
63039;DHT22;49125;48.812;9.206;2022-09-09T13:31:48;31.40;39.10
63039;DHT22;49125;48.812;9.206;2022-09-09T13:34:30;31.00;40.20
63039;DHT22;49125;48.812;9.206;2022-09-09T13:37:01;31.10;41.50
63039;DHT22;49125;48.812;9.206;2022-09-09T13:39:33;31.40;41.20
63039;DHT22;49125;48.812;9.206;2022-09-09T13:41:59;32.50;41.20
63039;DHT22;49125;48.812;9.206;2022-09-09T13:44:30;33.30;39.20
63039;DHT22;49125;48.812;9.206;2022-09-09T13:47:06;33.80;39.00
63039;DHT22;49125;48.812;9.206;2022-09-09T13:49:32;32.90;37.50
63039;DHT22;49125;48.812;9.206;2022-09-09T13:52:13;31.70;38.30
63039;DHT22;49125;48.812;9.206;2022-09-09T13:54:40;30.20;39.00
63039;DHT22;49125;48.812;9.206;2022-09-09T13:57:17;29.10;40.50
63039;DHT22;49125;48.812;9.206;2022-09-09T13:59:47;28.20;41.10
63039;DHT22;49125;48.812;9.206;2022-09-09T14:02:14;27.50;41.20
63039;DHT22;49125;48.812;9.206;2022-09-09T14:04:39;27.20;42.50
63039;DHT22;49125;48.812;9.206;2022-09-09T14:07:12;27.80;42.50
63039;DHT22;49125;48.812;9.206;2022-09-09T14:09:39;29.30;42.40
63039;DHT22;49125;48.812;9.206;2022-09-09T14:12:05;30.50;40.50
63039;DHT22;49125;48.812;9.206;2022-09-09T14:14:31;30.30;40.00
63039;DHT22;49125;48.812;9.206;2022-09-09T14:16:56;29.60;39.50
63039;DHT22;49125;48.812;9.206;2022-09-09T14:19:22;29.10;40.50
63039;DHT22;49125;48.812;9.206;2022-09-09T14:21:47;29.60;40.50
63039;DHT22;49125;48.812;9.206;2022-09-09T14:24:13;29.80;39.80
63039;DHT22;49125;48.812;9.206;2022-09-09T14:26:39;30.10;38.30
63039;DHT22;49125;48.812;9.206;2022-09-09T14:29:06;29.70;39.20
63039;DHT22;49125;48.812;9.206;2022-09-09T14:31:31;28.90;38.50
63039;DHT22;49125;48.812;9.206;2022-09-09T14:33:57;28.80;39.70
63039;DHT22;49125;48.812;9.206;2022-09-09T14:36:22;29.60;39.20
63039;DHT22;49125;48.812;9.206;2022-09-09T14:38:49;30.80;39.20
63039;DHT22;49125;48.812;9.206;2022-09-09T14:41:17;31.00;36.60
63039;DHT22;49125;48.812;9.206;2022-09-09T14:43:46;30.70;37.80
63039;DHT22;49125;48.812;9.206;2022-09-09T14:46:13;30.50;37.80
63039;DHT22;49125;48.812;9.206;2022-09-09T14:48:39;29.90;37.50
63039;DHT22;49125;48.812;9.206;2022-09-09T14:51:12;29.00;37.90
63039;DHT22;49125;48.812;9.206;2022-09-09T14:53:39;28.80;38.80
63039;DHT22;49125;48.812;9.206;2022-09-09T14:56:07;29.30;39.60
63039;DHT22;49125;48.812;9.206;2022-09-09T14:58:34;30.30;38.80
63039;DHT22;49125;48.812;9.206;2022-09-09T15:01:08;31.40;38.90
63039;DHT22;49125;48.812;9.206;2022-09-09T15:03:36;32.00;36.60
63039;DHT22;49125;48.812;9.206;2022-09-09T15:06:10;31.90;36.50
63039;DHT22;49125;48.812;9.206;2022-09-09T15:08:37;31.20;36.40
63039;DHT22;49125;48.812;9.206;2022-09-09T15:11:04;30.50;36.90
63039;DHT22;49125;48.812;9.206;2022-09-09T15:13:30;29.90;37.50
63039;DHT22;49125;48.812;9.206;2022-09-09T15:15:56;29.40;37.40
63039;DHT22;49125;48.812;9.206;2022-09-09T15:18:23;28.70;38.30
63039;DHT22;49125;48.812;9.206;2022-09-09T15:20:49;28.20;39.20
63039;DHT22;49125;48.812;9.206;2022-09-09T15:23:14;27.60;39.50
63039;DHT22;49125;48.812;9.206;2022-09-09T15:25:51;27.00;40.00
63039;DHT22;49125;48.812;9.206;2022-09-09T15:28:17;26.50;40.30
63039;DHT22;49125;48.812;9.206;2022-09-09T15:30:43;26.10;40.90
63039;DHT22;49125;48.812;9.206;2022-09-09T15:33:10;25.80;41.60
63039;DHT22;49125;48.812;9.206;2022-09-09T15:35:36;25.50;41.90
63039;DHT22;49125;48.812;9.206;2022-09-09T15:38:02;25.20;42.80
63039;DHT22;49125;48.812;9.206;2022-09-09T15:40:30;25.00;43.80
63039;DHT22;49125;48.812;9.206;2022-09-09T15:42:58;24.90;43.50
63039;DHT22;49125;48.812;9.206;2022-09-09T15:45:26;24.80;43.70
63039;DHT22;49125;48.812;9.206;2022-09-09T15:47:52;24.60;43.70
63039;DHT22;49125;48.812;9.206;2022-09-09T15:50:18;24.40;43.30
63039;DHT22;49125;48.812;9.206;2022-09-09T15:52:43;24.10;43.90
63039;DHT22;49125;48.812;9.206;2022-09-09T15:55:09;23.70;43.90
63039;DHT22;49125;48.812;9.206;2022-09-09T15:57:35;23.50;44.60
63039;DHT22;49125;48.812;9.206;2022-09-09T16:00:05;23.40;45.00
63039;DHT22;49125;48.812;9.206;2022-09-09T16:02:32;23.30;45.40
63039;DHT22;49125;48.812;9.206;2022-09-09T16:04:58;23.20;45.50
63039;DHT22;49125;48.812;9.206;2022-09-09T16:07:23;23.20;45.90
63039;DHT22;49125;48.812;9.206;2022-09-09T16:09:49;23.00;45.80
63039;DHT22;49125;48.812;9.206;2022-09-09T16:12:17;23.00;45.80
63039;DHT22;49125;48.812;9.206;2022-09-09T16:14:42;22.90;46.40
63039;DHT22;49125;48.812;9.206;2022-09-09T16:17:08;22.80;46.60
63039;DHT22;49125;48.812;9.206;2022-09-09T16:19:34;22.70;47.60
63039;DHT22;49125;48.812;9.206;2022-09-09T16:22:00;22.70;47.80
63039;DHT22;49125;48.812;9.206;2022-09-09T16:24:26;22.60;48.30
63039;DHT22;49125;48.812;9.206;2022-09-09T16:26:53;22.50;48.00
63039;DHT22;49125;48.812;9.206;2022-09-09T16:29:21;22.40;47.80
63039;DHT22;49125;48.812;9.206;2022-09-09T16:31:47;22.30;47.70
63039;DHT22;49125;48.812;9.206;2022-09-09T16:34:14;22.30;48.20
63039;DHT22;49125;48.812;9.206;2022-09-09T16:36:41;22.10;48.10
63039;DHT22;49125;48.812;9.206;2022-09-09T16:39:11;21.90;49.00
63039;DHT22;49125;48.812;9.206;2022-09-09T16:41:38;21.50;48.50
63039;DHT22;49125;48.812;9.206;2022-09-09T16:44:06;21.20;49.50
63039;DHT22;49125;48.812;9.206;2022-09-09T16:46:37;21.00;49.80
63039;DHT22;49125;48.812;9.206;2022-09-09T16:49:08;20.90;50.70
63039;DHT22;49125;48.812;9.206;2022-09-09T16:51:45;20.80;50.80
63039;DHT22;49125;48.812;9.206;2022-09-09T16:54:12;20.80;50.70
63039;DHT22;49125;48.812;9.206;2022-09-09T16:56:40;20.90;50.60
63039;DHT22;49125;48.812;9.206;2022-09-09T16:59:33;20.80;52.00
63039;DHT22;49125;48.812;9.206;2022-09-09T17:01:58;20.70;53.40
63039;DHT22;49125;48.812;9.206;2022-09-09T17:04:26;20.60;53.90
63039;DHT22;49125;48.812;9.206;2022-09-09T17:06:54;20.50;54.70
63039;DHT22;49125;48.812;9.206;2022-09-09T17:09:21;20.30;55.30
63039;DHT22;49125;48.812;9.206;2022-09-09T17:11:48;20.20;55.10
63039;DHT22;49125;48.812;9.206;2022-09-09T17:14:18;20.00;55.00
63039;DHT22;49125;48.812;9.206;2022-09-09T17:16:44;19.80;55.70
63039;DHT22;49125;48.812;9.206;2022-09-09T17:19:10;19.70;55.60
63039;DHT22;49125;48.812;9.206;2022-09-09T17:21:37;19.60;55.20
63039;DHT22;49125;48.812;9.206;2022-09-09T17:24:02;19.40;55.90
63039;DHT22;49125;48.812;9.206;2022-09-09T17:26:30;19.30;56.30
63039;DHT22;49125;48.812;9.206;2022-09-09T17:28:57;19.20;56.80
63039;DHT22;49125;48.812;9.206;2022-09-09T17:31:25;19.10;57.40
63039;DHT22;49125;48.812;9.206;2022-09-09T17:33:53;19.10;57.70
63039;DHT22;49125;48.812;9.206;2022-09-09T17:36:23;19.00;58.40
63039;DHT22;49125;48.812;9.206;2022-09-09T17:38:51;19.00;59.70
63039;DHT22;49125;48.812;9.206;2022-09-09T17:41:24;18.90;59.80
63039;DHT22;49125;48.812;9.206;2022-09-09T17:43:50;18.80;60.30
63039;DHT22;49125;48.812;9.206;2022-09-09T17:46:22;18.70;60.60
63039;DHT22;49125;48.812;9.206;2022-09-09T17:48:50;18.70;61.20
63039;DHT22;49125;48.812;9.206;2022-09-09T17:51:19;18.70;61.40
63039;DHT22;49125;48.812;9.206;2022-09-09T17:53:48;18.70;62.00
63039;DHT22;49125;48.812;9.206;2022-09-09T17:56:16;18.70;61.70